Time;durP1;ratioP1;P1;durP2;ratioP2;P2;SDS_P1;SDS_P2;PMS_P1;PMS_P2;Temp;Humidity;BMP_temperature;BMP_pressure;BME280_temperature;BME280_humidity;BME280_pressure;Samples;Min_cycle;Max_cycle;Signal;HPM_P1;HPM_P2
2022/02/01 00:01:34;;;;;;;4.63;1.30;;;;;;;5.21;73.25;100647.81;5034935;28;20411;-84
2022/02/01 00:04:03;;;;;;;3.45;1.50;;;;;;;5.25;72.61;100643.69;5046440;28;20457;-84
2022/02/01 00:06:47;;;;;;;4.85;1.80;;;;;;;5.26;73.31;100647.19;5039162;28;20393;-84
2022/02/01 00:09:30;;;;;;;6.75;1.95;;;;;;;5.18;73.39;100657.13;5037894;28;20412;-84
2022/02/01 00:12:10;;;;;;;5.57;1.70;;;;;;;5.20;73.00;100667.66;5038032;28;20406;-84
2022/02/01 00:19:46;;;;;;;5.20;1.70;;;;;;;5.15;73.40;100656.69;5047767;28;20396;-84
2022/02/01 00:33:26;;;;;;;3.85;1.38;;;;;;;5.15;73.32;100692.44;5037123;28;20817;-83
2022/02/01 00:38:34;;;;;;;5.95;1.27;;;;;;;5.17;72.71;100693.06;5041131;28;20395;-84
2022/02/01 00:41:04;;;;;;;4.88;1.58;;;;;;;5.19;72.49;100698.25;5046634;28;20413;-85
2022/02/01 00:43:31;;;;;;;5.45;2.10;;;;;;;5.20;72.83;100703.41;5033580;28;20411;-84
2022/02/01 00:46:00;;;;;;;5.22;2.70;;;;;;;5.21;72.70;100721.19;5037627;28;20873;-84
2022/02/01 00:48:25;;;;;;;6.53;1.85;;;;;;;5.26;72.45;100725.13;5037048;28;20391;-84
2022/02/01 00:50:50;;;;;;;6.97;1.65;;;;;;;5.27;72.28;100719.53;5043615;28;20441;-84
2022/02/01 00:53:16;;;;;;;2.93;1.60;;;;;;;5.26;72.68;100704.47;5047692;28;20461;-84
2022/02/01 00:55:41;;;;;;;7.73;2.10;;;;;;;5.15;72.67;100708.56;5029902;28;20775;-85
2022/02/01 00:58:06;;;;;;;7.72;1.92;;;;;;;5.15;72.69;100716.63;5034363;28;20829;-84
2022/02/01 01:00:32;;;;;;;5.47;2.20;;;;;;;5.21;72.67;100718.50;5045115;28;20436;-84
2022/02/01 01:02:57;;;;;;;5.60;1.93;;;;;;;5.20;72.29;100724.09;5036353;28;20397;-84
2022/02/01 01:05:22;;;;;;;6.63;1.40;;;;;;;5.22;72.30;100722.84;5042939;28;20399;-84
2022/02/01 01:07:48;;;;;;;8.23;1.75;;;;;;;5.24;72.49;100722.63;5031949;28;20387;-84
2022/02/01 01:10:13;;;;;;;7.80;2.57;;;;;;;5.19;72.27;100728.63;5031644;28;20449;-86
2022/02/01 01:12:51;;;;;;;7.50;2.13;;;;;;;5.13;72.22;100723.25;5036466;28;20416;-83
2022/02/01 01:15:24;;;;;;;6.88;1.80;;;;;;;5.13;72.20;100720.56;5055873;28;20730;-85
2022/02/01 01:18:27;;;;;;;9.05;2.10;;;;;;;5.14;72.26;100731.09;5051591;28;20401;-84
2022/02/01 01:46:03;;;;;;;6.82;1.90;;;;;;;5.21;70.87;100793.72;5049099;28;20397;-84
2022/02/01 01:54:00;;;;;;;6.65;1.90;;;;;;;5.26;70.59;100813.78;5036848;28;20422;-84
2022/02/01 01:56:25;;;;;;;7.50;1.83;;;;;;;5.23;70.51;100807.81;5034181;28;20742;-84
2022/02/01 01:58:50;;;;;;;9.67;1.90;;;;;;;5.16;70.68;100811.50;5040507;28;20391;-84
2022/02/01 02:01:16;;;;;;;13.03;2.27;;;;;;;5.16;70.89;100812.31;5034002;28;20478;-84
2022/02/01 02:03:47;;;;;;;8.27;2.00;;;;;;;5.15;71.06;100801.75;5048527;28;20924;-84
2022/02/01 02:06:16;;;;;;;12.18;2.83;;;;;;;5.14;70.96;100781.28;5034271;28;20457;-83
2022/02/01 02:08:45;;;;;;;7.32;2.10;;;;;;;5.08;70.68;100793.69;5036434;28;20489;-84
2022/02/01 02:11:15;;;;;;;9.07;2.80;;;;;;;5.13;70.73;100793.09;5033485;28;20419;-84
2022/02/01 02:16:37;;;;;;;9.60;2.33;;;;;;;5.17;70.89;100819.34;5043985;28;20388;-84
2022/02/01 02:19:03;;;;;;;11.85;2.85;;;;;;;5.13;70.77;100820.78;5036289;28;20399;-84
2022/02/01 02:21:29;;;;;;;9.55;2.55;;;;;;;5.10;70.86;100825.72;5036669;28;20395;-84
2022/02/01 02:23:54;;;;;;;14.93;2.70;;;;;;;5.07;70.66;100818.88;5051149;28;20815;-84
2022/02/01 02:26:20;;;;;;;12.33;2.87;;;;;;;5.03;70.34;100824.88;5044116;28;20395;-84
2022/02/01 02:28:46;;;;;;;9.20;3.07;;;;;;;5.03;70.44;100817.66;5036601;28;20873;-84
2022/02/01 02:31:12;;;;;;;12.27;2.55;;;;;;;5.07;70.30;100812.69;5038353;28;20886;-84
2022/02/01 02:33:37;;;;;;;11.45;3.10;;;;;;;5.04;70.38;100819.28;5034070;28;20395;-85
2022/02/01 02:36:11;;;;;;;14.18;3.00;;;;;;;4.93;70.77;100824.41;5052906;28;20463;-84
2022/02/01 02:39:19;;;;;;;11.88;2.67;;;;;;;4.91;70.31;100827.28;5039242;28;20407;-84
2022/02/01 02:46:44;;;;;;;12.13;3.13;;;;;;;4.85;70.28;100862.97;5050393;28;20408;-83
2022/02/01 02:49:14;;;;;;;16.50;3.15;;;;;;;4.89;70.51;100855.38;5036135;28;20398;-84
2022/02/01 02:51:40;;;;;;;16.38;3.22;;;;;;;4.82;70.64;100860.69;5034196;28;20836;-84
2022/02/01 02:54:07;;;;;;;19.08;3.42;;;;;;;4.77;70.64;100855.09;5038684;28;20483;-84
2022/02/01 02:56:33;;;;;;;16.13;3.80;;;;;;;4.78;70.36;100858.59;5048251;28;20400;-83
2022/02/01 02:58:59;;;;;;;17.00;3.38;;;;;;;4.81;70.20;100861.72;5036288;28;20393;-84
2022/02/01 03:01:24;;;;;;;16.30;3.38;;;;;;;4.77;69.96;100860.47;5045917;28;20391;-84
2022/02/01 03:03:49;;;;;;;15.70;3.47;;;;;;;4.77;70.40;100852.41;5041673;28;20734;-84
2022/02/01 03:06:14;;;;;;;11.13;3.80;;;;;;;4.74;70.02;100854.66;5045796;28;20415;-84
2022/02/01 03:08:40;;;;;;;14.40;3.95;;;;;;;4.72;69.91;100850.31;5035226;28;20809;-84
2022/02/01 03:11:11;;;;;;;13.90;3.10;;;;;;;4.67;69.77;100843.88;5047246;28;20411;-83
2022/02/01 03:13:38;;;;;;;17.70;3.72;;;;;;;4.67;69.94;100854.63;5031448;28;20775;-84
2022/02/01 03:16:15;;;;;;;13.93;2.97;;;;;;;4.69;69.86;100853.41;5045436;28;20398;-84
2022/02/01 03:21:24;;;;;;;16.07;3.63;;;;;;;4.68;69.08;100867.84;5043267;28;20402;-84
2022/02/01 03:23:50;;;;;;;22.00;3.63;;;;;;;4.67;69.07;100887.69;5043482;28;20402;-84
2022/02/01 03:26:15;;;;;;;14.53;3.33;;;;;;;4.66;68.80;100903.97;5064981;28;20752;-83
2022/02/01 03:28:40;;;;;;;18.87;3.10;;;;;;;4.65;68.58;100899.59;5045572;28;20490;-84
2022/02/01 03:31:06;;;;;;;15.30;3.40;;;;;;;4.62;68.94;100883.91;5039993;28;20474;-84
2022/02/01 03:33:31;;;;;;;18.15;3.25;;;;;;;4.64;68.57;100881.88;5040134;28;20428;-84
2022/02/01 03:35:56;;;;;;;12.60;2.57;;;;;;;4.61;68.59;100876.88;5047680;28;20398;-84
2022/02/01 03:38:22;;;;;;;18.30;3.43;;;;;;;4.60;68.59;100889.47;5035759;28;20788;-84
2022/02/01 03:40:47;;;;;;;14.75;2.85;;;;;;;4.64;67.83;100895.28;5045356;28;20391;-83
2022/02/01 03:43:12;;;;;;;18.47;3.93;;;;;;;4.58;67.46;100906.78;5043007;28;20425;-84
2022/02/01 03:45:38;;;;;;;14.20;3.10;;;;;;;4.57;67.67;100895.25;5025316;28;20403;-84
2022/02/01 03:48:03;;;;;;;15.73;3.70;;;;;;;4.60;67.81;100888.66;5032714;28;20413;-84
2022/02/01 03:50:28;;;;;;;18.10;4.13;;;;;;;4.57;67.67;100903.28;5038320;28;20463;-84
2022/02/01 03:52:54;;;;;;;17.83;3.70;;;;;;;4.51;67.42;100901.38;5050412;28;20425;-83
2022/02/01 03:55:20;;;;;;;20.13;3.50;;;;;;;4.55;67.74;100902.63;5039701;28;20405;-84
2022/02/01 03:57:45;;;;;;;18.15;3.15;;;;;;;4.48;67.04;100890.22;5034794;28;20402;-84
2022/02/01 04:00:11;;;;;;;13.33;3.60;;;;;;;4.51;67.30;100911.28;5037106;28;20401;-84
2022/02/01 04:02:37;;;;;;;12.95;3.22;;;;;;;4.44;66.61;100923.81;5049874;28;20409;-83
2022/02/01 04:05:03;;;;;;;14.30;3.13;;;;;;;4.52;66.28;100920.97;5030376;28;20403;-84
2022/02/01 04:07:28;;;;;;;20.40;3.60;;;;;;;4.51;66.09;100925.50;5030244;28;20405;-83
2022/02/01 04:09:53;;;;;;;21.47;3.27;;;;;;;4.47;66.13;100916.22;5035588;28;20410;-84
2022/02/01 04:12:19;;;;;;;12.87;3.17;;;;;;;4.51;66.30;100922.03;5045407;28;20399;-83
2022/02/01 04:14:46;;;;;;;14.53;3.60;;;;;;;4.46;66.54;100924.44;5039439;28;20387;-83
2022/02/01 04:17:11;;;;;;;14.50;3.80;;;;;;;4.41;66.58;100927.69;5035278;28;20397;-83
2022/02/01 04:19:37;;;;;;;16.13;3.47;;;;;;;4.39;66.26;100935.13;5037014;28;20500;-83
2022/02/01 04:22:04;;;;;;;19.47;3.63;;;;;;;4.34;66.53;100942.94;5044255;28;20460;-83
2022/02/01 04:24:41;;;;;;;17.17;3.03;;;;;;;4.43;66.94;100957.88;5040131;28;20401;-84
2022/02/01 04:27:14;;;;;;;13.32;2.70;;;;;;;4.38;66.88;100959.47;5042818;28;20510;-84
2022/02/01 04:29:45;;;;;;;18.65;3.83;;;;;;;4.36;67.46;100958.81;5036280;28;20425;-84
2022/02/01 04:32:11;;;;;;;17.95;3.40;;;;;;;4.40;67.03;100955.56;5035974;28;20902;-84
2022/02/01 04:34:36;;;;;;;17.83;2.93;;;;;;;4.40;67.30;100949.38;5035849;28;20410;-84
2022/02/01 04:37:01;;;;;;;14.57;3.30;;;;;;;4.39;67.36;100953.91;5031878;28;20463;-84
2022/02/01 04:39:27;;;;;;;20.50;3.97;;;;;;;4.43;67.42;100959.72;5046541;28;20392;-83
2022/02/01 04:41:53;;;;;;;16.13;3.17;;;;;;;4.43;67.78;100941.78;5032519;28;20422;-84
2022/02/01 04:44:18;;;;;;;16.33;3.10;;;;;;;4.32;67.36;100946.81;5043332;28;20753;-84
2022/02/01 04:46:44;;;;;;;18.20;4.17;;;;;;;4.36;67.76;100940.88;5034218;28;20403;-84
2022/02/01 04:49:11;;;;;;;16.50;3.30;;;;;;;4.31;67.68;100926.41;5050638;28;20924;-84
2022/02/01 04:51:36;;;;;;;16.88;3.30;;;;;;;4.23;67.34;100938.06;5037936;28;20695;-84
2022/02/01 04:54:02;;;;;;;15.40;2.80;;;;;;;4.28;67.92;100950.94;5061065;28;20474;-83
2022/02/01 04:56:27;;;;;;;16.33;3.70;;;;;;;4.33;67.80;100978.00;5050485;28;20402;-84
2022/02/01 04:58:53;;;;;;;14.10;3.20;;;;;;;4.30;67.85;100981.06;5051574;28;20385;-84
2022/02/01 05:01:24;;;;;;;18.30;3.73;;;;;;;4.35;67.50;100976.78;5043009;28;20470;-84
2022/02/01 05:03:50;;;;;;;15.80;4.32;;;;;;;4.37;67.93;100974.75;5039620;28;20418;-84
2022/02/01 05:06:15;;;;;;;18.10;3.70;;;;;;;4.33;68.07;100975.31;5033772;28;20503;-83
2022/02/01 05:08:42;;;;;;;12.83;2.93;;;;;;;4.15;68.34;100963.16;5050539;28;20451;-84
2022/02/01 05:11:08;;;;;;;14.82;3.00;;;;;;;4.07;68.95;100971.34;5035249;28;20481;-84
2022/02/01 05:14:05;;;;;;;15.88;3.72;;;;;;;4.16;68.44;100986.28;5036536;28;20435;-84
2022/02/01 05:16:20;;;;;;;15.65;3.65;;;;;;;4.18;68.47;100980.75;5037551;28;20406;-84
2022/02/01 05:18:48;;;;;;;16.42;3.92;;;;;;;4.14;68.72;100979.47;5050177;28;20549;-85
2022/02/01 05:21:21;;;;;;;15.30;3.28;;;;;;;4.26;68.06;100979.78;5026637;28;20965;-85
2022/02/01 05:23:47;;;;;;;14.23;3.33;;;;;;;4.13;68.53;101008.13;5047919;28;20415;-84
2022/02/01 05:26:13;;;;;;;15.68;3.92;;;;;;;4.15;68.45;101008.75;5037923;28;20401;-84
2022/02/01 05:28:38;;;;;;;15.23;3.50;;;;;;;4.14;68.41;101020.53;5048005;28;20497;-84
2022/02/01 05:31:04;;;;;;;14.50;3.90;;;;;;;4.10;68.31;101011.19;5038707;28;20906;-85
2022/02/01 05:33:35;;;;;;;15.25;3.03;;;;;;;4.00;68.54;101007.16;5041686;28;20401;-84
2022/02/01 05:36:05;;;;;;;13.20;2.78;;;;;;;4.01;68.56;101003.47;5051364;28;20722;-85
2022/02/01 05:38:31;;;;;;;15.38;2.72;;;;;;;3.90;68.67;101004.78;5041733;28;20415;-84
2022/02/01 05:40:57;;;;;;;15.25;3.20;;;;;;;3.91;68.66;101010.97;5051191;28;20477;-85
2022/02/01 05:43:25;;;;;;;10.35;2.80;;;;;;;4.01;68.59;101014.19;5041393;28;20468;-84
2022/02/01 05:45:51;;;;;;;12.40;3.10;;;;;;;4.03;68.47;101017.50;5042800;28;20402;-84
2022/02/01 05:48:18;;;;;;;14.05;2.85;;;;;;;4.05;67.92;101023.53;5030970;28;20975;-85
2022/02/01 05:50:46;;;;;;;11.65;3.00;;;;;;;3.97;68.09;101020.94;5037975;28;20771;-85
2022/02/01 05:53:12;;;;;;;13.80;3.22;;;;;;;3.95;68.16;101020.31;5048098;28;20410;-86
2022/02/01 05:55:37;;;;;;;13.20;3.70;;;;;;;3.97;68.19;101018.25;5041150;28;20480;-85
2022/02/01 05:58:03;;;;;;;11.20;2.47;;;;;;;3.99;67.79;100995.59;5034280;28;20404;-86
2022/02/01 06:00:28;;;;;;;16.35;3.20;;;;;;;4.00;67.75;100991.06;5036614;28;20908;-85
2022/02/01 06:02:54;;;;;;;14.68;2.85;;;;;;;4.12;66.76;100989.53;5040408;28;20481;-82
2022/02/01 06:05:19;;;;;;;12.60;3.07;;;;;;;4.16;67.58;101004.22;5037217;28;20457;-85
2022/02/01 06:07:45;;;;;;;10.97;3.53;;;;;;;4.17;67.66;101012.09;5034488;28;20411;-85
2022/02/01 06:10:11;;;;;;;14.32;3.45;;;;;;;4.18;67.89;101018.31;5039659;28;20450;-82
2022/02/01 06:12:46;;;;;;;10.15;3.22;;;;;;;4.11;68.22;101031.66;5039743;28;20436;-83
2022/02/01 06:15:14;;;;;;;15.90;3.85;;;;;;;4.08;68.17;101029.31;5043389;28;20482;-82
2022/02/01 06:17:40;;;;;;;14.90;3.53;;;;;;;4.00;68.89;101023.25;5032924;28;20405;-83
2022/02/01 06:20:07;;;;;;;14.15;3.95;;;;;;;3.96;69.61;101019.28;5031992;28;20407;-84
2022/02/01 06:22:33;;;;;;;17.40;3.83;;;;;;;3.99;69.55;101026.94;5039810;28;20427;-84
2022/02/01 06:24:58;;;;;;;14.97;3.50;;;;;;;4.03;69.66;101033.59;5034879;28;20527;-85
2022/02/01 06:27:25;;;;;;;16.17;3.37;;;;;;;4.08;69.65;101033.88;5048258;28;20748;-84
2022/02/01 06:29:50;;;;;;;18.42;3.60;;;;;;;4.08;69.26;101020.47;5046948;28;20405;-83
2022/02/01 06:32:16;;;;;;;15.25;4.28;;;;;;;4.07;69.08;101026.84;5041876;28;20403;-85
2022/02/01 06:34:41;;;;;;;26.00;8.73;;;;;;;3.89;69.94;101043.31;5038632;28;20571;-87
2022/02/01 06:37:07;;;;;;;15.17;5.20;;;;;;;3.85;70.67;101050.09;5042780;28;20454;-80
2022/02/01 06:39:32;;;;;;;29.95;9.75;;;;;;;3.88;70.63;101056.94;5047270;28;20425;-82
2022/02/01 06:41:58;;;;;;;22.23;7.60;;;;;;;3.86;70.78;101057.09;4987578;28;1727431;-82
2022/02/01 06:44:23;;;;;;;19.43;4.70;;;;;;;3.89;70.82;101071.97;5040379;28;20472;-83
2022/02/01 06:46:54;;;;;;;21.00;8.13;;;;;;;3.80;71.54;101083.81;5038924;28;20431;-83
2022/02/01 06:49:25;;;;;;;18.65;6.03;;;;;;;3.75;71.63;101083.56;5056489;28;20510;-83
2022/02/01 06:51:50;;;;;;;17.07;4.73;;;;;;;3.72;72.01;101087.47;5056328;28;20407;-84
2022/02/01 06:54:15;;;;;;;17.90;6.67;;;;;;;3.70;71.94;101089.47;5038524;28;20389;-83
2022/02/01 06:56:41;;;;;;;12.03;3.23;;;;;;;3.73;72.10;101082.91;5036031;28;20982;-83
2022/02/01 06:59:07;;;;;;;14.25;3.35;;;;;;;3.71;71.89;101080.41;5041693;28;20405;-82
2022/02/01 07:01:33;;;;;;;15.45;3.28;;;;;;;3.59;72.47;101088.06;5045941;28;20949;-83
2022/02/01 07:03:59;;;;;;;14.48;3.63;;;;;;;3.58;73.00;101088.28;5046379;28;20881;-83
2022/02/01 07:06:26;;;;;;;13.05;3.45;;;;;;;3.59;73.10;101088.06;5036750;28;20855;-83
2022/02/01 07:08:52;;;;;;;14.65;3.17;;;;;;;3.68;72.66;101099.56;5033283;28;20403;-83
2022/02/01 07:11:19;;;;;;;13.98;3.40;;;;;;;3.77;72.43;101094.94;5033160;28;20419;-82
2022/02/01 07:13:46;;;;;;;17.48;3.70;;;;;;;3.71;72.78;101091.16;5044176;28;20401;-84
2022/02/01 07:16:12;;;;;;;17.23;3.75;;;;;;;3.72;72.66;101091.97;5037376;28;20403;-83
2022/02/01 07:18:37;;;;;;;13.57;3.30;;;;;;;3.77;72.62;101086.88;5051355;28;20401;-83
2022/02/01 07:21:03;;;;;;;14.03;3.20;;;;;;;3.81;72.54;101085.50;5041626;28;20959;-83
2022/02/01 07:23:29;;;;;;;15.77;3.00;;;;;;;3.90;71.75;101071.81;5048709;28;20401;-82
2022/02/01 07:25:57;;;;;;;11.67;4.00;;;;;;;3.86;72.21;101080.41;5035440;28;20486;-82
2022/02/01 07:28:25;;;;;;;11.40;3.00;;;;;;;3.85;72.15;101074.22;5037695;28;20411;-82
2022/02/01 07:30:51;;;;;;;11.98;2.60;;;;;;;3.86;72.51;101054.41;5046635;28;20423;-82
2022/02/01 07:33:16;;;;;;;18.88;3.75;;;;;;;4.01;71.95;101047.22;5033474;28;20410;-82
2022/02/01 07:35:44;;;;;;;14.37;3.40;;;;;;;4.05;71.76;101040.41;5036004;28;20406;-82
2022/02/01 07:38:11;;;;;;;19.88;3.75;;;;;;;4.08;71.89;101044.59;5034275;28;20929;-82
2022/02/01 07:40:37;;;;;;;18.58;3.80;;;;;;;3.99;72.53;101043.03;5033004;28;20432;-82
2022/02/01 07:43:02;;;;;;;22.93;4.30;;;;;;;4.08;72.10;101049.97;5035453;28;20501;-82
2022/02/01 07:45:29;;;;;;;10.20;3.30;;;;;;;4.18;72.00;101037.09;5046922;28;20407;-81
2022/02/01 07:47:58;;;;;;;18.45;4.13;;;;;;;4.19;72.01;101034.19;5048152;28;20802;-82
2022/02/01 07:50:24;;;;;;;20.00;4.20;;;;;;;4.26;71.63;101042.31;5037482;28;20476;-82
2022/02/01 07:52:49;;;;;;;20.42;4.00;;;;;;;4.29;71.47;101043.78;5042201;28;20387;-82
2022/02/01 07:55:15;;;;;;;16.73;4.07;;;;;;;4.31;71.65;101031.88;5035212;28;20410;-81
2022/02/01 07:57:40;;;;;;;19.07;4.57;;;;;;;4.27;71.51;101045.84;5035287;28;20403;-82
2022/02/01 08:00:07;;;;;;;13.57;4.43;;;;;;;4.26;72.01;101054.91;5046669;28;20397;-81
2022/02/01 08:02:34;;;;;;;22.98;5.15;;;;;;;4.17;72.61;101067.59;5046783;28;20385;-82
2022/02/01 08:04:59;;;;;;;17.08;4.32;;;;;;;4.13;72.70;101060.94;5047177;28;20831;-82
2022/02/01 08:07:25;;;;;;;20.17;4.47;;;;;;;4.20;72.80;101061.88;5039169;28;20480;-81
2022/02/01 08:09:55;;;;;;;17.80;4.90;;;;;;;4.23;72.50;101053.44;5029473;28;20413;-81
2022/02/01 08:20:20;;;;;;;11.20;3.20;;;;;;;4.42;72.27;101058.19;5043568;28;20404;-82
2022/02/01 08:25:11;;;;;;;16.48;3.50;;;;;;;4.46;71.95;101082.78;5042958;28;20401;-81
2022/02/01 08:27:38;;;;;;;12.97;3.80;;;;;;;4.52;71.26;101084.69;5035152;28;20399;-82
2022/02/01 08:30:03;;;;;;;17.00;4.13;;;;;;;4.24;72.26;101078.41;5038648;28;20809;-82
2022/02/01 08:32:29;;;;;;;17.60;4.07;;;;;;;4.30;72.50;101073.13;5048407;28;20405;-81
2022/02/01 08:34:55;;;;;;;16.45;3.63;;;;;;;4.30;72.00;101067.75;5052362;28;20409;-82
2022/02/01 08:37:20;;;;;;;13.48;3.25;;;;;;;4.32;72.27;101086.34;5039296;28;20393;-82
2022/02/01 08:39:46;;;;;;;12.47;3.43;;;;;;;4.48;71.47;101072.72;5041719;28;20486;-82
2022/02/01 08:42:11;;;;;;;15.20;4.22;;;;;;;4.63;71.08;101060.88;5034372;28;20446;-82
2022/02/01 08:44:37;;;;;;;16.40;4.40;;;;;;;4.44;71.87;101053.47;5041562;28;20482;-82
2022/02/01 08:47:04;;;;;;;15.38;3.53;;;;;;;4.27;72.14;101060.09;5046058;28;20391;-82
2022/02/01 08:49:29;;;;;;;16.35;5.20;;;;;;;4.44;71.49;101058.00;5031300;28;20414;-82
2022/02/01 08:52:01;;;;;;;13.00;3.73;;;;;;;4.44;71.61;101066.06;5059424;28;20407;-81
2022/02/01 08:54:29;;;;;;;18.65;4.32;;;;;;;4.34;71.15;101069.06;5031452;28;20441;-83
2022/02/01 08:59:39;;;;;;;18.98;3.58;;;;;;;4.51;70.02;101066.97;5033630;28;20468;-82
2022/02/01 09:02:05;;;;;;;14.77;4.22;;;;;;;4.57;70.81;101068.88;5035738;28;20402;-82
2022/02/01 09:04:31;;;;;;;14.52;3.08;;;;;;;4.74;69.30;101061.41;5047061;28;20448;-82
2022/02/01 09:06:58;;;;;;;19.13;3.42;;;;;;;4.70;69.71;101059.09;5031091;28;20894;-81
2022/02/01 09:09:23;;;;;;;18.20;3.75;;;;;;;4.48;69.99;101064.66;5037994;28;20412;-82
2022/02/01 09:11:50;;;;;;;19.73;4.83;;;;;;;4.48;69.40;101049.34;5037126;28;20410;-82
2022/02/01 09:14:16;;;;;;;15.00;3.38;;;;;;;4.54;69.20;101053.16;5046060;28;20983;-82
2022/02/01 09:16:42;;;;;;;12.82;2.65;;;;;;;4.61;68.37;101060.22;5035067;28;20447;-81
2022/02/01 09:19:08;;;;;;;16.80;5.13;;;;;;;4.63;68.25;101058.22;5042389;28;20796;-82
2022/02/01 09:21:34;;;;;;;16.87;3.90;;;;;;;4.66;68.39;101060.50;5038915;28;20838;-82
2022/02/01 09:23:59;;;;;;;17.90;3.90;;;;;;;4.60;68.07;101065.81;5044839;28;20425;-82
2022/02/01 09:26:24;;;;;;;11.07;3.70;;;;;;;4.49;69.02;101069.81;5035593;28;20405;-81
2022/02/01 09:28:50;;;;;;;12.03;3.90;;;;;;;4.39;69.73;101066.63;5044230;28;20402;-81
2022/02/01 09:31:16;;;;;;;12.48;3.13;;;;;;;4.44;69.50;101061.53;5039777;28;20417;-82
2022/02/01 09:33:42;;;;;;;12.48;3.42;;;;;;;4.40;69.85;101054.88;5048552;28;20455;-83
2022/02/01 09:36:07;;;;;;;11.87;3.80;;;;;;;4.36;69.30;101047.38;5037160;28;20415;-80
2022/02/01 09:38:34;;;;;;;12.53;3.20;;;;;;;4.43;69.34;101038.38;5050905;28;20401;-82
2022/02/01 09:41:01;;;;;;;13.18;2.85;;;;;;;4.48;69.02;101038.63;5062951;28;20405;-82
2022/02/01 09:43:26;;;;;;;14.75;3.13;;;;;;;4.52;68.70;101044.44;5042105;28;20482;-83
2022/02/01 09:45:53;;;;;;;10.87;3.20;;;;;;;4.51;69.26;101038.25;5043111;28;20540;-82
2022/02/01 09:48:19;;;;;;;18.55;4.68;;;;;;;4.58;69.09;101039.13;5038455;28;20396;-83
2022/02/01 09:50:44;;;;;;;15.77;3.73;;;;;;;4.63;69.19;101046.63;5047327;28;20419;-85
2022/02/01 09:53:10;;;;;;;13.20;3.27;;;;;;;4.71;68.81;101043.81;5035626;28;20796;-82
2022/02/01 09:55:35;;;;;;;13.10;2.85;;;;;;;4.72;68.53;101045.47;5044895;28;20403;-83
2022/02/01 09:58:02;;;;;;;9.97;3.67;;;;;;;4.70;68.42;101037.63;5057486;28;20393;-81
2022/02/01 10:00:44;;;;;;;10.90;3.20;;;;;;;4.71;67.70;101043.81;5041064;28;20494;-81
2022/02/01 10:03:15;;;;;;;14.38;4.22;;;;;;;4.56;68.75;101051.94;5036569;28;20431;-81
2022/02/01 10:05:40;;;;;;;13.73;3.28;;;;;;;4.68;67.94;101047.72;5049491;28;20412;-82
2022/02/01 10:08:05;;;;;;;16.60;3.73;;;;;;;4.77;67.80;101056.47;5045124;28;20422;-82
2022/02/01 10:10:31;;;;;;;13.73;3.20;;;;;;;4.80;68.42;101052.56;5041743;28;20439;-81
2022/02/01 10:13:07;;;;;;;12.27;3.90;;;;;;;4.75;68.70;101046.94;5039896;28;20435;-83
2022/02/01 10:15:34;;;;;;;10.43;3.60;;;;;;;4.80;68.06;101042.66;5050088;28;20391;-82
2022/02/01 10:18:03;;;;;;;13.77;3.88;;;;;;;4.82;68.57;101040.59;5040564;28;20405;-82
2022/02/01 10:20:42;;;;;;;12.85;3.70;;;;;;;4.86;68.02;101036.53;5045414;28;20399;-82
2022/02/01 10:23:23;;;;;;;14.50;3.87;;;;;;;4.87;67.69;101022.06;5039287;28;20405;-81
2022/02/01 10:26:10;;;;;;;16.50;3.55;;;;;;;5.05;66.82;101010.84;5045207;28;20482;-81
2022/02/01 10:29:01;;;;;;;20.23;7.07;;;;;;;5.01;67.24;101009.56;5035032;28;20791;-81
2022/02/01 10:31:53;;;;;;;21.20;7.20;;;;;;;5.07;67.36;101006.13;5037630;28;20511;-80
2022/02/01 10:36:57;;;;;;;20.08;5.40;;;;;;;5.05;66.54;101008.97;5037211;28;20410;-81
2022/02/01 10:39:25;;;;;;;29.77;8.55;;;;;;;5.07;65.79;101012.28;5034941;28;20871;-82
2022/02/01 10:41:54;;;;;;;21.45;6.43;;;;;;;5.03;66.47;101012.91;5039275;28;20467;-81
2022/02/01 10:44:22;;;;;;;25.80;5.97;;;;;;;5.02;65.97;101003.16;5038031;28;20434;-81
2022/02/01 10:46:52;;;;;;;18.45;6.63;;;;;;;4.89;66.52;100993.16;5064413;28;20389;-81
2022/02/01 10:49:30;;;;;;;15.32;4.90;;;;;;;5.02;65.51;100985.19;5037338;28;20904;-84
2022/02/01 10:52:01;;;;;;;14.57;4.15;;;;;;;4.93;65.33;100978.31;5045519;28;20409;-82
2022/02/01 10:54:26;;;;;;;14.60;3.70;;;;;;;5.04;64.97;100969.72;5042862;28;20393;-80
2022/02/01 10:56:52;;;;;;;12.53;3.40;;;;;;;5.00;65.00;100957.72;5053899;28;20412;-81
2022/02/01 10:59:17;;;;;;;13.10;4.07;;;;;;;4.98;65.04;100957.06;5036244;28;20488;-82
2022/02/01 11:01:44;;;;;;;10.30;3.28;;;;;;;4.93;66.33;100966.75;5042667;28;20393;-82
2022/02/01 11:04:10;;;;;;;15.35;4.15;;;;;;;4.81;67.46;100966.44;5039594;28;20411;-82
2022/02/01 11:06:36;;;;;;;14.23;3.57;;;;;;;4.78;68.32;100952.56;5038906;28;20419;-81
2022/02/01 11:09:02;;;;;;;11.35;3.85;;;;;;;4.78;68.81;100942.66;5046971;28;20896;-81
2022/02/01 11:11:27;;;;;;;11.05;3.45;;;;;;;4.68;69.40;100924.22;5036713;28;20482;-82
2022/02/01 11:13:53;;;;;;;7.22;2.25;;;;;;;4.76;70.24;100917.88;5038656;28;20403;-82
2022/02/01 11:16:20;;;;;;;18.07;3.53;;;;;;;4.82;70.95;100909.03;5033412;28;20407;-82
2022/02/01 11:19:04;;;;;;;11.50;2.83;;;;;;;4.66;72.02;100914.69;5042797;28;20888;-82
2022/02/01 11:21:42;;;;;;;11.47;2.57;;;;;;;4.64;70.77;100896.09;5058425;28;20406;-85
2022/02/01 11:24:09;;;;;;;13.30;3.00;;;;;;;4.64;71.82;100881.88;5048650;28;20825;-85
2022/02/01 11:26:50;;;;;;;11.20;2.88;;;;;;;4.78;71.96;100877.38;5037299;28;20744;-87
2022/02/01 11:31:54;;;;;;;10.02;2.70;;;;;;;4.83;70.98;100859.69;5033194;28;20417;-87
2022/02/01 11:34:34;;;;;;;12.43;3.08;;;;;;;4.73;71.12;100861.88;5036998;28;20880;-84
2022/02/01 11:37:03;;;;;;;13.35;3.08;;;;;;;5.03;70.16;100866.00;5042116;28;20596;-84
2022/02/01 11:39:30;;;;;;;9.98;2.10;;;;;;;5.06;69.93;100852.16;5054692;28;20433;-88
2022/02/01 11:41:56;;;;;;;10.75;2.55;;;;;;;5.07;69.73;100835.00;5035020;28;20502;-88
2022/02/01 11:44:29;;;;;;;6.25;2.28;;;;;;;4.97;69.35;100839.09;5028286;28;20403;-86
2022/02/01 11:47:12;;;;;;;8.82;2.55;;;;;;;4.86;69.88;100828.91;5036898;28;20435;-84
2022/02/01 11:49:59;;;;;;;7.70;2.73;;;;;;;4.77;69.78;100822.88;5042352;28;20407;-87
2022/02/01 11:52:27;;;;;;;8.48;2.17;;;;;;;4.66;70.35;100815.38;5038786;28;20417;-86
2022/02/01 11:55:20;;;;;;;11.98;2.63;;;;;;;4.67;70.64;100807.13;5046065;28;20427;-84
2022/02/01 11:57:51;;;;;;;10.85;2.90;;;;;;;4.98;69.88;100809.34;5039690;28;20457;-87
2022/02/01 12:00:18;;;;;;;10.35;3.85;;;;;;;5.05;68.94;100801.31;5038316;28;20442;-83
2022/02/01 12:02:48;;;;;;;9.52;2.78;;;;;;;4.87;69.98;100796.50;5048729;28;20905;-85
2022/02/01 12:05:18;;;;;;;16.00;2.83;;;;;;;4.85;68.94;100801.22;5034648;28;20414;-85
2022/02/01 12:08:05;;;;;;;9.57;2.80;;;;;;;4.98;68.66;100782.47;5039965;28;20900;-84
2022/02/01 12:10:45;;;;;;;15.93;3.83;;;;;;;4.92;69.19;100771.72;5038128;28;20821;-86
2022/02/01 12:13:12;;;;;;;10.02;2.50;;;;;;;5.05;68.51;100752.97;5038138;28;20435;-84
2022/02/01 12:15:40;;;;;;;14.15;2.47;;;;;;;4.80;69.20;100758.03;5042059;28;20407;-87
2022/02/01 12:18:24;;;;;;;11.40;2.97;;;;;;;4.79;70.53;100766.28;5041351;28;20766;-84
2022/02/01 12:21:04;;;;;;;9.50;2.25;;;;;;;4.75;70.66;100732.81;5045843;28;20409;-87
2022/02/01 12:23:30;;;;;;;11.13;2.50;;;;;;;4.63;71.30;100733.41;5032186;28;20781;-87
2022/02/01 12:25:56;;;;;;;10.75;3.20;;;;;;;4.65;69.97;100734.00;5040938;28;20410;-88
2022/02/01 12:28:25;;;;;;;9.73;2.70;;;;;;;4.69;71.27;100731.75;5032049;28;20914;-90
2022/02/01 12:30:52;;;;;;;9.85;2.90;;;;;;;4.66;71.93;100706.16;5031817;28;20412;-91
2022/02/01 12:33:21;;;;;;;11.25;3.63;;;;;;;4.71;73.34;100718.94;5027754;28;20421;-87
2022/02/01 12:35:49;;;;;;;9.98;2.58;;;;;;;4.64;74.51;100710.88;5034599;28;20956;-88
2022/02/01 12:38:23;;;;;;;9.88;2.30;;;;;;;4.42;75.89;100695.91;5032597;28;20406;-88
2022/02/01 12:41:00;;;;;;;8.70;2.30;;;;;;;4.43;77.07;100697.56;5040145;28;20405;-89
2022/02/01 12:43:29;;;;;;;11.77;3.10;;;;;;;4.41;77.44;100688.88;5030694;28;20948;-88
2022/02/01 12:46:31;;;;;;;9.93;2.20;;;;;;;4.56;77.32;100686.91;5032078;28;20409;-87
2022/02/01 12:48:51;;;;;;;7.55;2.53;;;;;;;4.69;77.66;100675.38;5036935;28;20411;-90
2022/02/01 12:51:17;;;;;;;7.77;2.57;;;;;;;4.62;77.81;100671.84;5026548;28;20427;-88